Latest Weather Observations for Williamson

IDQ60801

Issued at 7:03 pm EST Wednesday 22 November 2017 (issued every 30 minutes, with the page automatically refreshed every 10 minutes)

About weather observations | Map of weather stations | Latest weather observations for QLD | Other Formats
Station Details ID: 033195 Name: WILLIAMSON Lat: -22.47 Lon: 150.18 Height: 27.6 m
Data from the previous 72 hours. | See also: Recent months at Williamson
Date/Time
EST
Temp
°C
App
Temp
°C
Dew
Point
°C
Rel
Hum
%
Delta-T
°C
Wind Press
QNH
hPa
Press
MSL
hPa
Rain since
9am
mm
Dir  Spd
km/h
Gust
km/h
Spd
kts
Gust
kts
22/07:00pm 22.7 22.8 17.4 72 3.3 ENE 13 24 7 13 1012.5 1012.3 0.0
22/06:30pm 23.6 22.5 15.4 60 4.9 ESE 15 24 8 13 1012.1 1011.9 0.0
22/06:00pm 24.1 23.7 15.1 57 5.4 E 11 17 6 9 1011.6 1011.4 0.0
22/05:30pm 24.4 24.2 16.6 61 4.8 E 13 20 7 11 1011.2 1011.0 0.0
22/05:00pm 24.7 24.0 16.4 60 5.1 E 15 26 8 14 1011.0 1010.8 0.0
22/04:30pm 24.7 23.2 16.2 59 5.2 E 19 32 10 17 1010.8 1010.6 0.0
22/04:00pm 25.2 24.2 16.6 59 5.3 E 17 30 9 16 1010.6 1010.4 0.0
22/03:30pm 27.1 25.9 15.1 47 7.3 ESE 15 28 8 15 1010.5 1010.3 0.0
22/03:00pm 26.2 25.5 15.3 51 6.6 E 13 20 7 11 1010.7 1010.5 0.0
22/02:30pm 26.8 26.6 15.8 51 6.7 ESE 11 20 6 11 1011.0 1010.8 0.0
22/02:00pm 25.5 25.6 16.4 57 5.6 SE 11 19 6 10 1011.3 1011.1 0.0
22/01:30pm 24.1 23.8 16.4 62 4.7 ESE 13 22 7 12 1011.8 1011.6 0.0
22/01:00pm 25.4 24.2 15.1 53 6.2 ESE 15 28 8 15 1012.2 1012.0 0.0
22/12:30pm 25.3 24.1 14.1 50 6.6 SE 13 26 7 14 1012.5 1012.3 0.0
22/12:00pm 25.2 24.5 16.4 58 5.4 ESE 15 30 8 16 1012.7 1012.5 0.0
22/11:30am 25.4 24.3 15.4 54 6.1 E 15 22 8 12 1013.0 1012.8 0.0
22/11:00am 25.0 23.2 15.6 56 5.7 ESE 19 24 10 13 1013.5 1013.3 0.0
22/10:30am 25.3 24.3 15.6 55 5.9 ESE 15 24 8 13 1013.6 1013.4 0.0
22/10:00am 24.6 23.4 15.0 55 5.8 SE 15 24 8 13 1013.8 1013.6 0.0
22/09:30am 23.8 22.6 15.0 57 5.3 SSE 15 24 8 13 1013.7 1013.5 0.0
22/09:00am 23.5 22.4 15.3 60 4.9 SSE 15 22 8 12 1013.5 1013.3 0.8
22/08:30am 22.9 21.6 15.7 64 4.3 SSE 17 24 9 13 1013.5 1013.3 0.8
22/08:00am 22.8 22.1 16.4 67 3.9 SSE 15 26 8 14 1013.5 1013.3 0.8
22/07:30am 21.0 20.5 16.8 77 2.6 S 15 24 8 13 1013.6 1013.4 0.8
22/07:00am 20.9 19.4 16.7 77 2.5 S 20 30 11 16 1013.8 1013.6 0.8
22/06:30am 20.6 19.8 16.0 75 2.8 S 15 24 8 13 1013.4 1013.2 0.8
22/06:00am 20.2 19.4 16.2 78 2.4 S 15 20 8 11 1013.1 1012.9 0.8
22/05:30am 20.3 20.1 16.7 80 2.2 S 13 20 7 11 1012.7 1012.5 0.8
22/05:00am 20.3 19.3 16.7 80 2.2 S 17 24 9 13 1012.2 1012.0 0.8
22/04:30am 20.8 21.1 17.0 79 2.3 S 11 17 6 9 1012.2 1012.0 0.8
22/04:00am 21.0 21.8 16.4 75 2.8 SSE 7 13 4 7 1011.9 1011.7 0.8
22/03:30am 21.7 22.5 16.4 72 3.2 SE 7 13 4 7 1011.6 1011.4 0.8
22/03:00am 21.8 22.6 16.3 71 3.3 SSE 7 13 4 7 1011.5 1011.3 0.8
22/02:30am 22.1 22.7 15.9 68 3.7 SSE 7 13 4 7 1011.7 1011.5 0.8
22/02:00am 22.4 21.8 15.7 66 4.0 SE 13 26 7 14 1012.0 1011.8 0.8
22/01:30am 22.4 22.3 16.0 67 3.9 SE 11 19 6 10 1011.9 1011.7 0.8
22/01:00am 22.4 22.3 16.0 67 3.9 ESE 11 24 6 13 1012.2 1012.0 0.8
22/12:30am 22.5 22.0 15.8 66 4.0 ESE 13 20 7 11 1012.5 1012.3 0.8
22/12:00am 22.4 22.3 16.0 67 3.9 ESE 11 19 6 10 1012.8 1012.6 0.8
 
Date/Time
EST
Temp
°C
App
Temp
°C
Dew
Point
°C
Rel
Hum
%
Delta-T
°C
Wind Press
QNH
hPa
Press
MSL
hPa
Rain since
9am
mm
Dir  Spd
km/h
Gust
km/h
Spd
kts
Gust
kts
21/11:30pm 22.4 22.3 16.0 67 3.9 SE 11 24 6 13 1013.4 1013.2 0.8
21/11:00pm 22.3 22.7 16.3 69 3.6 ESE 9 15 5 8 1013.8 1013.6 0.8
21/10:30pm 22.5 22.5 16.3 68 3.8 ESE 11 15 6 8 1014.1 1013.9 0.8
21/10:00pm 22.5 23.0 16.5 69 3.7 ESE 9 15 5 8 1014.4 1014.2 0.8
21/09:30pm 22.6 22.3 16.4 68 3.8 ESE 13 20 7 11 1014.2 1014.0 0.8
21/09:00pm 22.5 22.5 16.3 68 3.8 ESE 11 20 6 11 1014.3 1014.1 0.8
21/08:30pm 22.5 22.9 16.3 68 3.8 ESE 9 15 5 8 1014.4 1014.2 0.8
21/08:00pm 22.6 23.0 16.2 67 3.9 ESE 9 13 5 7 1014.4 1014.2 0.8
21/07:30pm 22.9 23.3 16.2 66 4.1 ESE 9 15 5 8 1014.4 1014.2 0.8
21/07:00pm 23.1 22.9 15.7 63 4.5 ESE 11 19 6 10 1014.1 1013.9 0.8
21/06:30pm 23.3 22.6 15.4 61 4.7 ESE 13 20 7 11 1013.9 1013.7 0.8
21/06:00pm 23.6 23.3 15.4 60 4.9 ESE 11 22 6 12 1013.5 1013.3 0.8
21/05:30pm 23.8 22.6 15.0 57 5.3 ESE 15 24 8 13 1013.3 1013.1 0.8
21/05:00pm 24.1 23.3 16.1 61 4.9 ESE 15 26 8 14 1013.0 1012.8 0.8
21/04:30pm 24.3 24.2 16.0 60 5.0 ESE 11 20 6 11 1012.7 1012.5 0.8
21/04:00pm 24.1 24.5 16.4 62 4.7 ESE 9 17 5 9 1013.0 1012.8 0.8
21/03:30pm 24.1 23.8 16.4 62 4.7 E 13 24 7 13 1013.1 1012.9 0.8
21/03:00pm 21.8 22.1 18.0 79 2.4 SSE 13 24 7 13 1013.3 1013.1 0.8
21/02:30pm 23.8 24.7 17.5 68 3.9 ESE 9 19 5 10 1013.3 1013.1 0.6
21/02:00pm 23.0 24.1 18.1 74 3.1 E 9 17 5 9 1013.6 1013.4 0.6
21/01:30pm 21.9 21.8 17.9 78 2.5 SE 15 24 8 13 1014.2 1014.0 0.4
21/01:00pm 21.7 21.3 18.1 80 2.2 SE 17 26 9 14 1014.2 1014.0 0.4
21/12:30pm 24.5 23.5 16.7 61 4.8 ESE 17 26 9 14 1014.3 1014.1 0.0
21/12:00pm 25.2 23.1 16.1 57 5.6 SE 22 37 12 20 1014.4 1014.2 0.0
21/11:30am 27.6 24.9 13.5 41 8.4 E 20 35 11 19 1014.6 1014.4 0.0
21/11:00am 28.0 25.1 13.9 42 8.4 E 22 39 12 21 1015.0 1014.8 0.0
21/10:30am 27.4 24.9 14.1 44 7.9 E 20 39 11 21 1015.2 1015.0 0.0
21/10:00am 26.5 24.0 13.6 45 7.6 E 19 32 10 17 1015.4 1015.2 0.0
21/09:30am 26.8 24.8 13.9 45 7.7 E 17 26 9 14 1015.4 1015.2 0.0
21/09:00am 26.3 24.7 13.8 46 7.4 ESE 15 24 8 13 1015.6 1015.4 0.0
21/08:30am 25.2 23.8 14.6 51 6.3 ESE 15 24 8 13 1015.5 1015.3 0.0
21/08:00am 24.5 23.6 14.9 55 5.7 ESE 13 22 7 12 1015.6 1015.4 0.0
21/07:30am 24.3 21.9 14.4 54 5.9 SE 20 35 11 19 1015.1 1014.9 0.0
21/07:00am 24.3 23.1 15.0 56 5.6 ESE 15 20 8 11 1015.1 1014.9 0.0
21/06:30am 23.3 22.0 14.8 59 5.0 ESE 15 24 8 13 1014.9 1014.7 0.0
21/06:00am 21.2 21.2 15.3 69 3.5 SSE 9 13 5 7 1014.6 1014.4 0.0
21/05:30am 20.1 20.5 15.3 74 2.8 SSE 7 15 4 8 1014.4 1014.2 0.0
21/05:00am 20.1 20.4 14.9 72 3.1 S 7 11 4 6 1014.2 1014.0 0.0
21/04:30am 21.5 21.1 15.1 67 3.8 ESE 11 19 6 10 1013.8 1013.6 0.0
21/04:00am 21.3 21.3 15.2 68 3.6 SE 9 15 5 8 1013.8 1013.6 0.0
21/03:30am 21.3 21.3 15.2 68 3.6 ESE 9 15 5 8 1014.0 1013.8 0.0
21/03:00am 21.3 21.3 15.2 68 3.6 SE 9 17 5 9 1013.9 1013.7 0.0
21/02:30am 21.6 21.3 15.4 68 3.7 ESE 11 20 6 11 1014.0 1013.8 0.0
21/02:00am 21.6 20.9 15.4 68 3.7 ESE 13 19 7 10 1014.1 1013.9 0.0
21/01:30am 21.6 21.7 15.4 68 3.7 ESE 9 15 5 8 1014.6 1014.4 0.0
21/01:00am 21.9 21.6 15.5 67 3.8 ESE 11 20 6 11 1014.7 1014.5 0.0
21/12:30am 21.7 21.4 15.5 68 3.7 ESE 11 17 6 9 1015.2 1015.0 0.0
21/12:00am 21.8 22.4 15.9 69 3.5 SE 7 15 4 8 1015.7 1015.5 0.0
 
Date/Time
EST
Temp
°C
App
Temp
°C
Dew
Point
°C
Rel
Hum
%
Delta-T
°C
Wind Press
QNH
hPa
Press
MSL
hPa
Rain since
9am
mm
Dir  Spd
km/h
Gust
km/h
Spd
kts
Gust
kts
20/11:30pm 21.9 22.6 16.0 69 3.6 ESE 7 15 4 8 1016.0 1015.8 0.0
20/11:00pm 22.1 21.9 15.7 67 3.8 ESE 11 30 6 16 1015.8 1015.6 0.0
20/10:30pm 22.2 22.2 15.3 65 4.1 ESE 9 17 5 9 1016.0 1015.8 0.0
20/10:00pm 22.3 21.9 15.2 64 4.2 ESE 11 17 6 9 1016.1 1015.9 0.0
20/09:30pm 22.5 21.6 14.9 62 4.5 E 13 20 7 11 1016.0 1015.8 0.0
20/09:00pm 22.5 22.0 14.9 62 4.5 ESE 11 19 6 10 1015.8 1015.6 0.0
20/08:30pm 22.7 21.8 14.8 61 4.7 ESE 13 22 7 12 1015.8 1015.6 0.0
20/08:00pm 22.7 22.2 15.0 61 4.6 ESE 11 19 6 10 1015.8 1015.6 0.0
20/07:30pm 23.0 21.3 14.8 60 4.9 E 17 28 9 15 1015.7 1015.5 0.0
20/07:00pm 23.3 21.2 14.8 59 5.0 ESE 19 28 10 15 1015.6 1015.4 0.0
20/06:30pm 23.8 22.0 14.5 56 5.5 E 17 24 9 13 1015.2 1015.0 0.0
20/06:00pm 24.7 22.8 14.2 52 6.2 E 17 28 9 15 1014.7 1014.5 0.0
20/05:30pm 25.7 23.1 13.2 46 7.3 E 19 30 10 16 1014.3 1014.1 0.0
20/05:00pm 26.3 24.4 13.1 44 7.7 ESE 15 28 8 15 1013.8 1013.6 0.0
20/04:30pm 26.2 23.2 12.6 43 7.9 ESE 20 32 11 17 1013.6 1013.4 0.0
20/04:00pm 26.4 23.9 14.2 47 7.3 ESE 20 39 11 21 1013.7 1013.5 0.0
20/03:30pm 27.2 24.8 13.9 44 7.9 ESE 19 30 10 16 1013.7 1013.5 0.0
20/03:00pm 27.3 24.8 13.6 43 8.1 E 19 30 10 16 1013.7 1013.5 0.0
20/02:30pm 26.6 24.2 14.4 47 7.3 ESE 20 33 11 18 1013.8 1013.6 0.0
20/02:00pm 27.3 25.2 14.7 46 7.6 ESE 19 30 10 16 1014.3 1014.1 0.0
20/01:30pm 27.1 25.5 15.1 47 7.3 ESE 17 37 9 20 1014.6 1014.4 0.0
20/01:00pm 25.4 23.0 15.4 54 6.0 E 22 37 12 20 1015.0 1014.8 0.0
20/12:30pm 27.0 25.1 14.1 45 7.7 E 17 32 9 17 1015.0 1014.8 0.0
20/12:00pm 25.8 23.2 14.9 51 6.5 ESE 22 37 12 20 1015.8 1015.6 0.0
20/11:30am 25.8 23.7 15.2 52 6.4 ESE 20 33 11 18 1015.9 1015.7 0.0
20/11:00am 27.2 24.9 14.6 46 7.6 ESE 20 33 11 18 1015.9 1015.7 0.0
20/10:30am 25.8 24.4 15.5 53 6.3 E 17 30 9 16 1016.1 1015.9 0.0
20/10:00am 26.8 25.0 16.1 52 6.6 E 20 32 11 17 1016.1 1015.9 0.0
20/09:30am 25.3 24.0 15.9 56 5.7 ESE 17 32 9 17 1016.1 1015.9 0.0
20/09:00am 25.5 23.1 15.5 54 6.1 ESE 22 35 12 19 1015.9 1015.7 0.8
20/08:30am 25.6 23.7 15.3 53 6.2 ESE 19 32 10 17 1015.9 1015.7 0.8
20/08:00am 25.3 24.1 16.2 57 5.6 ESE 17 30 9 16 1016.0 1015.8 0.8
20/07:30am 24.8 24.0 16.2 58 5.3 ESE 15 24 8 13 1015.9 1015.7 0.8
20/07:00am 24.4 24.1 16.4 61 4.9 ESE 13 26 7 14 1015.6 1015.4 0.8
20/06:30am 23.3 23.8 16.6 66 4.1 SE 9 17 5 9 1015.3 1015.1 0.8
20/06:00am 22.3 23.3 16.8 71 3.4 SSE 7 11 4 6 1015.0 1014.8 0.8
20/05:30am 21.9 23.0 16.6 72 3.2 SSE 6 9 3 5 1014.5 1014.3 0.8
20/05:00am 22.2 23.1 16.5 70 3.5 SE 7 13 4 7 1014.3 1014.1 0.8
20/04:30am 22.3 22.6 16.1 68 3.7 SE 9 20 5 11 1013.9 1013.7 0.8
20/04:00am 22.3 23.2 16.6 70 3.5 E 7 13 4 7 1013.5 1013.3 0.8
20/03:30am 22.4 22.8 16.4 69 3.6 ESE 9 15 5 8 1013.5 1013.3 0.8
20/03:00am 22.5 22.9 16.3 68 3.8 ESE 9 17 5 9 1013.6 1013.4 0.8
20/02:30am 22.4 22.8 16.4 69 3.6 ESE 9 13 5 7 1013.7 1013.5 0.8
20/02:00am 22.4 23.2 16.4 69 3.6 ESE 7 13 4 7 1013.6 1013.4 0.8
20/01:30am 22.5 22.5 16.3 68 3.8 SE 11 19 6 10 1013.7 1013.5 0.8
20/01:00am 22.4 22.8 16.4 69 3.6 E 9 17 5 9 1013.6 1013.4 0.8
20/12:30am 22.6 22.3 16.4 68 3.8 ESE 13 20 7 11 1014.2 1014.0 0.8
20/12:00am 22.4 22.8 16.4 69 3.6 ESE 9 15 5 8 1014.7 1014.5 0.8
 
Date/Time
EST
Temp
°C
App
Temp
°C
Dew
Point
°C
Rel
Hum
%
Delta-T
°C
Wind Press
QNH
hPa
Press
MSL
hPa
Rain since
9am
mm
Dir  Spd
km/h
Gust
km/h
Spd
kts
Gust
kts
19/11:30pm 22.6 22.4 16.6 69 3.7 ESE 13 20 7 11 1015.0 1014.8 0.8
19/11:00pm 22.5 23.5 16.8 70 3.5 ESE 7 13 4 7 1015.2 1015.0 0.8
19/10:30pm 22.7 23.3 16.9 70 3.6 ESE 9 17 5 9 1015.2 1015.0 0.8
19/10:00pm 22.7 23.0 16.9 70 3.6 ESE 11 17 6 9 1015.5 1015.3 0.8
19/09:30pm 22.8 22.3 17.0 70 3.6 ESE 15 28 8 15 1015.0 1014.8 0.8
19/09:00pm 22.7 22.2 16.9 70 3.6 ESE 15 26 8 14 1014.9 1014.7 0.8
19/08:30pm 22.7 22.8 17.4 72 3.3 ESE 13 20 7 11 1014.8 1014.6 0.8
19/08:00pm 23.0 23.7 17.0 69 3.7 ESE 9 19 5 10 1014.9 1014.7 0.8
19/07:30pm 23.1 23.1 17.1 69 3.7 ESE 13 22 7 12 1015.1 1014.9 0.8

Other Formats:

Comma delimited format used in spreadsheet applications
http://www.bom.gov.au/fwo/IDQ60801/IDQ60801.95370.axf

JavaScript Object Notation format (JSON) in row-major order
http://www.bom.gov.au/fwo/IDQ60801/IDQ60801.95370.json